createdAt,value
2022-10-15T00:00:49.022Z,5.80
2022-10-15T00:03:16.026Z,9.38
2022-10-15T00:05:42.861Z,9.38
2022-10-15T00:08:10.991Z,6.75
2022-10-15T00:10:38.393Z,12.27
2022-10-15T00:13:05.719Z,9.35
2022-10-15T00:15:32.805Z,8.63
2022-10-15T00:17:59.526Z,8.40
2022-10-15T00:20:26.234Z,9.07
2022-10-15T00:22:53.057Z,10.20
2022-10-15T00:25:19.804Z,6.50
2022-10-15T00:27:46.668Z,6.88
2022-10-15T00:30:13.733Z,8.05
2022-10-15T00:32:40.541Z,10.73
2022-10-15T00:35:07.762Z,11.52
2022-10-15T00:37:34.933Z,7.20
2022-10-15T00:42:29.281Z,11.75
2022-10-15T00:44:59.022Z,7.35
2022-10-15T00:47:30.738Z,8.88
2022-10-15T00:50:25.216Z,8.52
2022-10-15T00:52:57.820Z,11.60
2022-10-15T00:55:27.701Z,10.80
2022-10-15T00:57:56.253Z,7.70
2022-10-15T01:00:23.120Z,7.32
2022-10-15T01:02:50.096Z,9.55
2022-10-15T01:05:18.697Z,10.23
2022-10-15T01:07:45.406Z,6.47
2022-10-15T01:10:12.919Z,8.48
2022-10-15T01:12:48.908Z,8.43
2022-10-15T01:15:42.736Z,9.10
2022-10-15T01:18:15.879Z,7.30
2022-10-15T01:20:42.619Z,7.10
2022-10-15T01:23:30.325Z,7.85
2022-10-15T01:26:25.530Z,7.65
2022-10-15T01:29:27.340Z,11.70
2022-10-15T01:32:03.928Z,17.15
2022-10-15T01:34:33.593Z,10.88
2022-10-15T01:37:07.596Z,8.32
2022-10-15T01:39:41.869Z,13.20
2022-10-15T01:42:23.719Z,10.20
2022-10-15T01:45:03.513Z,12.05
2022-10-15T01:47:45.194Z,9.65
2022-10-15T01:50:15.311Z,11.55
2022-10-15T01:52:43.699Z,12.07
2022-10-15T01:55:14.395Z,11.10
2022-10-15T01:57:44.264Z,12.73
2022-10-15T02:00:11.898Z,12.30
2022-10-15T02:02:38.921Z,11.25
2022-10-15T02:05:10.566Z,7.53
2022-10-15T02:08:01.704Z,6.40
2022-10-15T02:10:40.007Z,6.95
2022-10-15T02:13:37.333Z,9.38
2022-10-15T02:16:14.248Z,10.65
2022-10-15T02:18:56.186Z,7.18
2022-10-15T02:21:35.841Z,10.75
2022-10-15T02:24:22.908Z,9.07
2022-10-15T02:26:53.884Z,10.65
2022-10-15T02:29:24.166Z,10.20
2022-10-15T02:31:52.619Z,11.82
2022-10-15T02:34:22.668Z,9.82
2022-10-15T02:39:22.039Z,10.68
2022-10-15T02:41:49.245Z,9.85
2022-10-15T02:44:16.181Z,7.38
2022-10-15T02:46:43.084Z,9.68
2022-10-15T02:49:09.783Z,11.88
2022-10-15T02:51:37.424Z,8.85
2022-10-15T02:54:05.655Z,8.15
2022-10-15T02:56:32.453Z,7.70
2022-10-15T02:58:59.421Z,12.63
2022-10-15T03:01:26.187Z,8.88
2022-10-15T03:03:53.052Z,9.70
2022-10-15T03:06:19.821Z,6.97
2022-10-15T03:08:46.496Z,9.13
2022-10-15T03:11:13.289Z,11.20
2022-10-15T03:13:41.244Z,14.15
2022-10-15T03:16:09.784Z,10.50
2022-10-15T03:18:39.850Z,9.27
2022-10-15T03:21:08.067Z,7.28
2022-10-15T03:23:34.977Z,10.35
2022-10-15T03:26:01.903Z,11.13
2022-10-15T03:28:28.731Z,11.07
2022-10-15T03:30:55.520Z,6.82
2022-10-15T03:33:24.463Z,8.02
2022-10-15T03:35:52.980Z,9.25
2022-10-15T03:38:19.979Z,8.68
2022-10-15T03:40:46.781Z,7.47
2022-10-15T03:43:13.747Z,7.47
2022-10-15T03:45:40.790Z,6.72
2022-10-15T03:48:07.743Z,10.52
2022-10-15T03:50:35.108Z,9.07
2022-10-15T03:53:05.824Z,8.05
2022-10-15T03:55:33.330Z,11.63
2022-10-15T03:58:00.428Z,9.65
2022-10-15T04:00:27.343Z,9.50
2022-10-15T04:02:54.064Z,7.38
2022-10-15T04:05:21.161Z,8.68
2022-10-15T04:07:47.833Z,7.95
2022-10-15T04:10:14.650Z,7.43
2022-10-15T04:12:41.791Z,6.03
2022-10-15T04:15:08.951Z,8.13
2022-10-15T04:17:35.700Z,11.35
2022-10-15T04:20:03.063Z,6.55
2022-10-15T04:22:29.811Z,9.30
2022-10-15T04:24:56.484Z,6.65
2022-10-15T04:27:23.313Z,7.28
2022-10-15T04:29:50.045Z,6.00
2022-10-15T04:32:16.946Z,5.55
2022-10-15T04:34:45.865Z,8.30
2022-10-15T04:37:12.641Z,6.40
2022-10-15T04:39:39.403Z,4.68
2022-10-15T04:42:06.267Z,6.38
2022-10-15T04:44:33.035Z,8.93
2022-10-15T04:47:00.968Z,6.82
2022-10-15T04:49:27.776Z,8.38
2022-10-15T04:51:54.733Z,7.95
2022-10-15T04:54:21.480Z,7.15
2022-10-15T04:56:48.345Z,10.30
2022-10-15T04:59:15.178Z,11.68
2022-10-15T05:01:41.893Z,8.35
2022-10-15T05:04:12.399Z,6.97
2022-10-15T05:06:39.213Z,6.85
2022-10-15T05:09:05.931Z,10.75
2022-10-15T05:11:36.814Z,7.82
2022-10-15T05:14:04.228Z,9.50
2022-10-15T05:16:31.504Z,8.45
2022-10-15T05:19:04.213Z,7.20
2022-10-15T05:21:31.973Z,13.63
2022-10-15T05:23:59.739Z,10.27
2022-10-15T05:26:28.167Z,10.40
2022-10-15T05:28:57.939Z,9.30
2022-10-15T05:31:28.712Z,7.97
2022-10-15T05:33:56.087Z,8.10
2022-10-15T05:36:24.302Z,9.13
2022-10-15T05:38:53.767Z,9.77
2022-10-15T05:41:21.909Z,8.63
2022-10-15T05:43:50.987Z,7.07
2022-10-15T05:46:19.280Z,7.63
2022-10-15T05:48:50.375Z,7.88
2022-10-15T05:51:17.735Z,5.65
2022-10-15T05:53:46.468Z,5.40
2022-10-15T05:56:16.360Z,6.40
2022-10-15T05:58:43.296Z,4.93
2022-10-15T06:01:12.947Z,6.05
2022-10-15T06:03:41.428Z,4.88
2022-10-15T06:06:27.246Z,5.60
2022-10-15T06:08:54.817Z,7.38
2022-10-15T06:11:21.812Z,8.75
2022-10-15T06:13:48.684Z,4.00
2022-10-15T06:16:20.857Z,10.88
2022-10-15T06:18:52.620Z,9.52
2022-10-15T06:21:19.351Z,3.75
2022-10-15T06:23:46.052Z,10.52
2022-10-15T06:26:12.969Z,8.23
2022-10-15T06:28:40.062Z,9.27
2022-10-15T06:31:07.623Z,7.65
2022-10-15T06:33:35.521Z,7.85
2022-10-15T06:36:08.322Z,6.30
2022-10-15T06:38:35.186Z,4.30
2022-10-15T06:41:05.888Z,8.60
2022-10-15T06:43:35.169Z,5.10
2022-10-15T06:46:04.185Z,6.35
2022-10-15T06:48:31.241Z,7.63
2022-10-15T06:50:59.468Z,9.50
2022-10-15T06:53:26.247Z,9.43
2022-10-15T06:55:57.223Z,3.92
2022-10-15T06:58:24.194Z,9.77
2022-10-15T07:00:50.906Z,5.45
2022-10-15T07:03:17.845Z,8.32
2022-10-15T07:05:44.664Z,7.72
2022-10-15T07:08:15.508Z,9.05
2022-10-15T07:10:45.966Z,4.50
2022-10-15T07:13:12.701Z,7.88
2022-10-15T07:15:39.496Z,6.68
2022-10-15T07:18:06.405Z,13.00
2022-10-15T07:20:33.772Z,11.82
2022-10-15T07:23:02.354Z,9.48
2022-10-15T07:25:29.634Z,7.10
2022-10-15T07:27:57.352Z,6.55
2022-10-15T07:30:27.719Z,13.02
2022-10-15T07:32:58.577Z,8.88
2022-10-15T07:35:26.805Z,6.28
2022-10-15T07:37:53.787Z,8.93
2022-10-15T07:40:20.744Z,6.45
2022-10-15T07:42:57.670Z,7.95
2022-10-15T07:45:25.464Z,7.95
2022-10-15T07:47:52.943Z,6.55
2022-10-15T07:50:20.737Z,11.15
2022-10-15T07:52:48.236Z,9.32
2022-10-15T07:55:14.977Z,10.73
2022-10-15T07:57:41.716Z,10.82
2022-10-15T08:00:09.207Z,10.20
2022-10-15T08:02:35.928Z,12.10
2022-10-15T08:05:02.648Z,9.50
2022-10-15T08:07:29.720Z,10.88
2022-10-15T08:09:56.471Z,11.40
2022-10-15T08:12:23.380Z,11.95
2022-10-15T08:14:50.451Z,14.93
2022-10-15T08:17:17.164Z,13.27
2022-10-15T08:19:44.157Z,12.45
2022-10-15T08:22:12.610Z,9.05
2022-10-15T08:24:39.319Z,9.68
2022-10-15T08:27:06.042Z,8.10
2022-10-15T08:29:33.000Z,7.47
2022-10-15T08:31:59.748Z,13.43
2022-10-15T08:34:26.749Z,10.55
2022-10-15T08:36:53.659Z,8.70
2022-10-15T08:39:20.338Z,9.70
2022-10-15T08:41:57.388Z,5.95
2022-10-15T08:44:29.854Z,8.73
2022-10-15T08:47:08.452Z,10.38
2022-10-15T08:49:49.184Z,12.20
2022-10-15T08:52:26.792Z,10.93
2022-10-15T08:54:56.473Z,15.73
2022-10-15T08:57:46.180Z,12.95
2022-10-15T09:00:22.288Z,21.92
2022-10-15T09:02:59.135Z,13.20
2022-10-15T09:05:29.840Z,14.30
2022-10-15T09:08:31.211Z,14.65
2022-10-15T09:11:03.297Z,13.30
2022-10-15T09:13:42.547Z,12.07
2022-10-15T09:16:29.406Z,13.63
2022-10-15T09:18:59.052Z,14.20
2022-10-15T09:21:26.872Z,18.65
2022-10-15T09:24:01.656Z,13.70
2022-10-15T09:26:32.944Z,14.35
2022-10-15T09:29:16.716Z,16.98
2022-10-15T09:32:06.531Z,15.02
2022-10-15T09:34:51.037Z,16.90
2022-10-15T09:37:36.547Z,20.90
2022-10-15T09:40:15.500Z,20.77
2022-10-15T09:42:44.834Z,21.70
2022-10-15T09:45:14.809Z,25.23
2022-10-15T09:50:12.497Z,16.58
2022-10-15T09:52:56.114Z,17.58
2022-10-15T09:55:38.309Z,17.38
2022-10-15T09:58:28.224Z,15.88
2022-10-15T10:03:32.584Z,17.15
2022-10-15T10:06:02.764Z,18.50
2022-10-15T10:08:34.551Z,21.15
2022-10-15T10:11:03.379Z,20.13
2022-10-15T10:13:40.299Z,19.40
2022-10-15T10:16:12.020Z,23.70
2022-10-15T10:18:39.994Z,19.42
2022-10-15T10:21:21.789Z,24.85
2022-10-15T10:23:48.684Z,19.38
2022-10-15T10:26:15.633Z,19.05
2022-10-15T10:28:53.729Z,17.50
2022-10-15T10:31:33.444Z,18.88
2022-10-15T10:34:04.128Z,17.52
2022-10-15T10:36:34.608Z,19.13
2022-10-15T10:39:10.665Z,18.67
2022-10-15T10:42:01.428Z,14.65
2022-10-15T10:44:32.563Z,15.98
2022-10-15T10:47:10.555Z,16.73
2022-10-15T10:49:39.180Z,15.88
2022-10-15T10:52:07.043Z,12.60
2022-10-15T10:54:34.658Z,16.60
2022-10-15T10:57:01.876Z,18.88
2022-10-15T10:59:37.117Z,17.70
2022-10-15T11:02:06.669Z,13.00
2022-10-15T11:04:36.692Z,21.52
2022-10-15T11:07:13.593Z,15.65
2022-10-15T11:09:52.367Z,14.13
2022-10-15T11:12:25.973Z,15.18
2022-10-15T11:18:00.783Z,19.38
2022-10-15T11:20:48.295Z,16.60
2022-10-15T11:23:38.458Z,18.40
2022-10-15T11:26:23.371Z,16.08
2022-10-15T11:29:20.888Z,16.83
2022-10-15T11:32:02.708Z,12.65
2022-10-15T11:35:04.119Z,9.90
2022-10-15T11:37:48.904Z,12.05
2022-10-15T11:40:45.156Z,11.93
2022-10-15T11:43:25.055Z,7.97
2022-10-15T11:48:53.090Z,7.38
2022-10-15T11:51:19.857Z,9.10
2022-10-15T11:53:49.181Z,7.68
2022-10-15T11:56:19.963Z,5.95
2022-10-15T11:58:54.774Z,5.80
2022-10-15T12:01:31.669Z,8.90
2022-10-15T12:04:03.927Z,5.43
2022-10-15T12:06:36.286Z,5.95
2022-10-15T12:09:05.560Z,7.13
2022-10-15T12:11:53.915Z,11.40
2022-10-15T12:14:44.573Z,12.90
2022-10-15T12:17:11.281Z,10.27
2022-10-15T12:19:47.182Z,9.93
2022-10-15T12:22:34.139Z,8.30
2022-10-15T12:25:01.917Z,9.40
2022-10-15T12:27:34.810Z,8.27
2022-10-15T12:30:04.324Z,8.57
2022-10-15T12:32:48.940Z,10.02
2022-10-15T12:35:15.781Z,11.52
2022-10-15T12:37:46.060Z,5.82
2022-10-15T12:40:28.478Z,8.13
2022-10-15T12:43:05.356Z,9.82
2022-10-15T12:45:51.016Z,6.38
2022-10-15T12:48:29.997Z,9.25
2022-10-15T12:51:21.649Z,10.00
2022-10-15T12:53:50.005Z,9.27
2022-10-15T12:56:16.624Z,9.60
2022-10-15T12:58:46.597Z,8.45
2022-10-15T13:01:13.307Z,8.55
2022-10-15T13:03:52.413Z,8.98
2022-10-15T13:06:24.667Z,6.85
2022-10-15T13:09:00.341Z,8.30
2022-10-15T13:11:45.203Z,9.23
2022-10-15T13:14:12.070Z,6.20
2022-10-15T13:16:44.772Z,11.48
2022-10-15T13:19:24.185Z,9.85
2022-10-15T13:21:54.668Z,10.30
2022-10-15T13:24:24.172Z,9.40
2022-10-15T13:26:51.742Z,8.45
2022-10-15T13:29:21.306Z,4.35
2022-10-15T13:31:48.988Z,5.15
2022-10-15T13:34:33.674Z,5.47
2022-10-15T13:37:03.439Z,8.63
2022-10-15T13:42:25.675Z,10.93
2022-10-15T13:45:16.870Z,10.65
2022-10-15T13:47:49.049Z,13.90
2022-10-15T13:50:21.644Z,12.73
2022-10-15T13:52:50.943Z,11.15
2022-10-15T13:55:29.731Z,10.00
2022-10-15T13:58:03.650Z,13.32
2022-10-15T14:00:33.784Z,13.50
2022-10-15T14:03:31.136Z,14.93
2022-10-15T14:06:10.273Z,8.30
2022-10-15T14:08:37.453Z,10.77
2022-10-15T14:11:04.278Z,12.82
2022-10-15T14:13:31.027Z,7.60
2022-10-15T14:16:20.892Z,9.90
2022-10-15T14:21:22.350Z,6.30
2022-10-15T14:23:50.182Z,4.93
2022-10-15T14:26:24.680Z,2.97
2022-10-15T14:28:52.432Z,2.75
2022-10-15T14:31:32.096Z,3.35
2022-10-15T14:33:58.821Z,3.95
2022-10-15T14:36:29.687Z,5.43
2022-10-15T14:39:34.310Z,3.42
2022-10-15T14:42:27.101Z,2.65
2022-10-15T14:44:54.023Z,4.75
2022-10-15T14:47:30.613Z,6.38
2022-10-15T14:50:00.815Z,5.38
2022-10-15T14:52:30.679Z,4.28
2022-10-15T14:57:45.017Z,3.28
2022-10-15T15:00:17.731Z,4.53
2022-10-15T15:02:44.561Z,4.88
2022-10-15T15:05:11.346Z,6.00
2022-10-15T15:07:39.568Z,3.83
2022-10-15T15:10:08.885Z,5.35
2022-10-15T15:12:38.644Z,4.45
2022-10-15T15:15:14.165Z,7.97
2022-10-15T15:17:40.863Z,3.60
2022-10-15T15:20:08.067Z,9.30
2022-10-15T15:22:36.361Z,4.88
2022-10-15T15:25:10.781Z,4.63
2022-10-15T15:27:37.814Z,3.42
2022-10-15T15:30:06.847Z,3.78
2022-10-15T15:32:34.104Z,4.78
2022-10-15T15:35:01.155Z,6.00
2022-10-15T15:37:30.365Z,5.00
2022-10-15T15:39:57.077Z,3.60
2022-10-15T15:42:25.782Z,6.90
2022-10-15T15:44:52.655Z,5.47
2022-10-15T15:47:19.356Z,4.43
2022-10-15T15:49:46.112Z,4.50
2022-10-15T15:52:14.467Z,4.70
2022-10-15T15:54:41.620Z,4.95
2022-10-15T15:57:08.589Z,6.55
2022-10-15T15:59:35.397Z,6.32
2022-10-15T16:02:02.209Z,4.60
2022-10-15T16:04:29.092Z,3.92
2022-10-15T16:06:55.867Z,3.08
2022-10-15T16:09:23.634Z,3.85
2022-10-15T16:11:51.189Z,4.80
2022-10-15T16:14:18.053Z,2.95
2022-10-15T16:16:44.796Z,3.10
2022-10-15T16:19:11.771Z,3.78
2022-10-15T16:21:40.873Z,2.03
2022-10-15T16:24:07.918Z,1.80
2022-10-15T16:26:34.887Z,2.97
2022-10-15T16:29:01.712Z,2.28
2022-10-15T16:31:30.411Z,2.00
2022-10-15T16:33:57.636Z,1.63
2022-10-15T16:36:24.584Z,2.17
2022-10-15T16:38:51.625Z,4.10
2022-10-15T16:41:21.389Z,3.47
2022-10-15T16:43:48.976Z,6.82
2022-10-15T16:46:19.585Z,1.83
2022-10-15T16:48:46.783Z,1.83
2022-10-15T16:51:16.270Z,5.45
2022-10-15T16:53:44.431Z,2.70
2022-10-15T16:56:22.775Z,2.80
2022-10-15T16:58:50.136Z,2.42
2022-10-15T17:01:20.838Z,4.57
2022-10-15T17:03:48.386Z,4.22
2022-10-15T17:06:22.821Z,3.97
2022-10-15T17:08:54.625Z,3.60
2022-10-15T17:11:30.028Z,3.63
2022-10-15T17:13:59.395Z,2.72
2022-10-15T17:16:33.097Z,3.60
2022-10-15T17:19:00.394Z,2.33
2022-10-15T17:21:29.458Z,5.03
2022-10-15T17:23:58.859Z,4.43
2022-10-15T17:26:28.832Z,4.45
2022-10-15T17:28:55.927Z,3.15
2022-10-15T17:31:25.071Z,6.45
2022-10-15T17:34:00.983Z,4.90
2022-10-15T17:36:30.116Z,3.72
2022-10-15T17:39:00.211Z,4.50
2022-10-15T17:41:30.031Z,7.25
2022-10-15T17:43:57.745Z,7.53
2022-10-15T17:46:27.722Z,4.30
2022-10-15T17:51:25.228Z,4.97
2022-10-15T17:53:53.329Z,4.10
2022-10-15T17:56:28.876Z,3.67
2022-10-15T17:58:56.604Z,5.13
2022-10-15T18:01:45.843Z,5.22
2022-10-15T18:04:16.035Z,4.75
2022-10-15T18:06:45.114Z,5.05
2022-10-15T18:09:12.121Z,9.93
2022-10-15T18:11:38.901Z,6.20
2022-10-15T18:14:05.937Z,4.60
2022-10-15T18:16:32.936Z,5.45
2022-10-15T18:18:59.932Z,5.10
2022-10-15T18:21:28.480Z,5.10
2022-10-15T18:23:58.414Z,4.70
2022-10-15T18:28:53.818Z,4.60
2022-10-15T18:31:21.733Z,5.50
2022-10-15T18:33:52.114Z,6.50
2022-10-15T18:36:22.217Z,6.07
2022-10-15T18:38:49.561Z,5.13
2022-10-15T18:41:33.395Z,6.55
2022-10-15T18:44:02.845Z,7.82
2022-10-15T18:46:31.189Z,9.98
2022-10-15T18:48:58.655Z,8.18
2022-10-15T18:51:25.689Z,5.00
2022-10-15T18:53:53.387Z,5.32
2022-10-15T18:56:20.984Z,4.05
2022-10-15T18:58:48.377Z,4.53
2022-10-15T19:01:39.283Z,4.35
2022-10-15T19:04:09.348Z,4.43
2022-10-15T19:09:07.495Z,8.20
2022-10-15T19:11:35.145Z,4.97
2022-10-15T19:14:02.001Z,5.10
2022-10-15T19:16:29.132Z,2.58
2022-10-15T19:18:56.359Z,3.85
2022-10-15T19:21:23.068Z,5.07
2022-10-15T19:23:49.940Z,4.35
2022-10-15T19:26:16.774Z,4.40
2022-10-15T19:28:43.932Z,4.25
2022-10-15T19:31:18.180Z,3.55
2022-10-15T19:33:44.881Z,3.00
2022-10-15T19:36:11.746Z,3.10
2022-10-15T19:38:38.752Z,3.58
2022-10-15T19:41:05.624Z,3.47
2022-10-15T19:43:32.386Z,4.07
2022-10-15T19:46:04.073Z,5.50
2022-10-15T19:48:31.169Z,4.45
2022-10-15T19:51:01.781Z,2.42
2022-10-15T19:53:28.696Z,7.75
2022-10-15T19:55:57.644Z,4.30
2022-10-15T19:58:25.058Z,4.05
2022-10-15T20:00:54.075Z,4.50
2022-10-15T20:03:21.848Z,2.83
2022-10-15T20:05:49.210Z,5.47
2022-10-15T20:08:16.268Z,3.30
2022-10-15T20:10:47.180Z,5.03
2022-10-15T20:13:15.899Z,6.70
2022-10-15T20:15:43.913Z,4.68
2022-10-15T20:18:11.943Z,3.22
2022-10-15T20:20:41.277Z,4.38
2022-10-15T20:23:08.223Z,4.95
2022-10-15T20:25:38.144Z,2.53
2022-10-15T20:30:31.888Z,2.63
2022-10-15T20:32:58.861Z,5.07
2022-10-15T20:35:25.673Z,2.60
2022-10-15T20:37:52.398Z,1.92
2022-10-15T20:40:19.189Z,1.98
2022-10-15T20:42:45.994Z,2.50
2022-10-15T20:45:14.682Z,5.05
2022-10-15T20:47:45.370Z,3.42
2022-10-15T20:50:16.881Z,3.08
2022-10-15T20:52:43.756Z,3.83
2022-10-15T20:55:11.112Z,4.47
2022-10-15T20:57:38.573Z,3.38
2022-10-15T21:00:08.057Z,5.00
2022-10-15T21:02:35.321Z,5.35
2022-10-15T21:05:02.592Z,5.80
2022-10-15T21:07:29.422Z,7.97
2022-10-15T21:09:56.216Z,5.53
2022-10-15T21:12:23.252Z,6.60
2022-10-15T21:14:50.132Z,3.05
2022-10-15T21:17:16.861Z,6.30
2022-10-15T21:19:43.739Z,7.18
2022-10-15T21:22:10.481Z,5.03
2022-10-15T21:24:38.376Z,4.35
2022-10-15T21:27:05.403Z,4.90
2022-10-15T21:29:32.119Z,7.43
2022-10-15T21:31:58.837Z,3.03
2022-10-15T21:34:27.911Z,3.95
2022-10-15T21:36:55.359Z,5.10
2022-10-15T21:39:22.466Z,4.80
2022-10-15T21:41:49.434Z,5.60
2022-10-15T21:44:16.254Z,4.13
2022-10-15T21:46:43.551Z,3.83
2022-10-15T21:49:10.550Z,4.22
2022-10-15T21:51:38.222Z,4.53
2022-10-15T21:54:06.055Z,6.40
2022-10-15T21:56:33.873Z,3.38
2022-10-15T21:59:00.992Z,4.90
2022-10-15T22:01:33.194Z,8.05
2022-10-15T22:04:02.916Z,3.17
2022-10-15T22:06:29.824Z,2.75
2022-10-15T22:08:56.532Z,4.68
2022-10-15T22:13:59.201Z,4.32
2022-10-15T22:16:28.228Z,3.70
2022-10-15T22:18:56.701Z,3.50
2022-10-15T22:21:29.498Z,6.47
2022-10-15T22:23:59.160Z,7.28
2022-10-15T22:26:32.703Z,5.32
2022-10-15T22:29:01.332Z,1.88
2022-10-15T22:31:28.956Z,3.45
2022-10-15T22:33:58.192Z,1.98
2022-10-15T22:36:27.663Z,5.30
2022-10-15T22:39:05.284Z,6.07
2022-10-15T22:41:39.811Z,3.97
2022-10-15T22:44:11.593Z,3.50
2022-10-15T22:46:39.660Z,3.45
2022-10-15T22:49:08.357Z,5.78
2022-10-15T22:51:35.577Z,4.22
2022-10-15T22:54:02.481Z,5.38
2022-10-15T22:56:29.798Z,4.63
2022-10-15T22:58:58.461Z,5.45
2022-10-15T23:01:27.727Z,1.70
2022-10-15T23:04:01.703Z,2.60
2022-10-15T23:06:29.501Z,8.15
2022-10-15T23:08:57.032Z,5.68
2022-10-15T23:11:32.632Z,4.32
2022-10-15T23:14:05.893Z,5.93
2022-10-15T23:16:35.365Z,5.15
2022-10-15T23:19:06.189Z,7.97
2022-10-15T23:21:35.798Z,6.00
2022-10-15T23:24:02.937Z,3.22
2022-10-15T23:26:30.110Z,4.90
2022-10-15T23:28:58.832Z,6.45
2022-10-15T23:31:28.037Z,6.97
2022-10-15T23:33:56.650Z,7.53
2022-10-15T23:36:25.547Z,3.42
2022-10-15T23:38:54.897Z,5.88
2022-10-15T23:41:22.115Z,5.15
2022-10-15T23:43:48.968Z,8.80
2022-10-15T23:46:16.068Z,3.92
2022-10-15T23:48:42.934Z,3.67
2022-10-15T23:51:20.984Z,5.90
2022-10-15T23:53:48.102Z,3.55
2022-10-15T23:56:15.756Z,2.42
2022-10-15T23:58:43.058Z,2.72
